createdAt,value
2023-04-02T00:01:33.669Z,2.29
2023-04-02T00:04:00.222Z,2.19
2023-04-02T00:06:44.655Z,2.17
2023-04-02T00:09:11.156Z,2.28
2023-04-02T00:11:42.757Z,2.32
2023-04-02T00:14:16.701Z,2.20
2023-04-02T00:16:43.964Z,2.18
2023-04-02T00:19:18.569Z,2.23
2023-04-02T00:21:46.941Z,2.27
2023-04-02T00:24:18.554Z,2.26
2023-04-02T00:26:47.105Z,2.31
2023-04-02T00:29:15.893Z,2.25
2023-04-02T00:31:45.401Z,2.31
2023-04-02T00:34:31.819Z,2.20
2023-04-02T00:36:58.493Z,2.23
2023-04-02T00:39:29.169Z,2.13
2023-04-02T00:42:06.883Z,2.22
2023-04-02T00:44:38.816Z,2.15
2023-04-02T00:47:20.221Z,2.20
2023-04-02T00:49:47.424Z,2.16
2023-04-02T00:52:22.172Z,2.13
2023-04-02T00:54:52.316Z,2.15
2023-04-02T00:57:25.528Z,2.13
2023-04-02T01:00:21.674Z,2.19
2023-04-02T01:03:16.445Z,2.25
2023-04-02T01:05:52.495Z,2.26
2023-04-02T01:08:28.607Z,2.36
2023-04-02T01:11:21.841Z,2.38
2023-04-02T01:14:26.185Z,2.31
2023-04-02T01:16:57.525Z,2.31
2023-04-02T01:20:07.912Z,2.17
2023-04-02T01:22:42.592Z,2.22
2023-04-02T01:25:14.029Z,2.31
2023-04-02T01:27:52.492Z,2.34
2023-04-02T01:30:19.672Z,2.28
2023-04-02T01:32:46.448Z,2.27
2023-04-02T01:35:13.074Z,2.30
2023-04-02T01:37:46.684Z,2.25
2023-04-02T01:40:32.126Z,2.28
2023-04-02T01:43:09.279Z,2.28
2023-04-02T01:45:36.796Z,2.22
2023-04-02T01:48:14.670Z,2.25
2023-04-02T01:50:43.918Z,2.16
2023-04-02T01:53:13.515Z,2.14
2023-04-02T01:55:47.042Z,2.19
2023-04-02T01:58:17.364Z,2.19
2023-04-02T02:00:49.992Z,2.22
2023-04-02T02:03:17.141Z,2.32
2023-04-02T02:05:43.970Z,2.13
2023-04-02T02:08:28.536Z,2.16
2023-04-02T02:10:55.085Z,2.18
2023-04-02T02:13:23.092Z,2.18
2023-04-02T02:15:50.001Z,2.22
2023-04-02T02:18:20.170Z,2.18
2023-04-02T02:20:47.280Z,2.14
2023-04-02T02:23:14.378Z,2.15
2023-04-02T02:25:41.240Z,2.13
2023-04-02T02:28:13.852Z,2.25
2023-04-02T02:30:47.181Z,2.30
2023-04-02T02:33:32.931Z,2.34
2023-04-02T02:36:10.196Z,2.29
2023-04-02T02:38:46.104Z,2.26
2023-04-02T02:41:50.305Z,2.33
2023-04-02T02:44:33.542Z,2.26
2023-04-02T02:47:19.840Z,2.22
2023-04-02T02:49:50.008Z,2.31
2023-04-02T02:52:20.138Z,2.31
2023-04-02T02:54:49.986Z,2.31
2023-04-02T02:57:27.768Z,2.25
2023-04-02T02:59:57.414Z,2.22
2023-04-02T03:02:25.309Z,2.34
2023-04-02T03:04:53.861Z,2.37
2023-04-02T03:07:26.179Z,2.35
2023-04-02T03:10:01.574Z,2.25
2023-04-02T03:13:00.790Z,2.37
2023-04-02T03:15:54.399Z,2.19
2023-04-02T03:18:43.974Z,2.22
2023-04-02T03:21:17.772Z,2.27
2023-04-02T03:23:51.624Z,2.15
2023-04-02T03:26:22.820Z,2.22
2023-04-02T03:29:03.390Z,2.28
2023-04-02T03:31:38.630Z,2.29
2023-04-02T03:34:20.244Z,2.10
2023-04-02T03:36:58.029Z,2.30
2023-04-02T03:39:45.674Z,2.34
2023-04-02T03:42:25.133Z,2.37
2023-04-02T03:44:58.722Z,2.39
2023-04-02T03:47:38.761Z,2.34
2023-04-02T03:50:11.311Z,2.34
2023-04-02T03:52:38.554Z,2.28
2023-04-02T03:55:18.245Z,2.28
2023-04-02T03:57:54.055Z,2.37
2023-04-02T04:00:26.472Z,2.40
2023-04-02T04:02:57.585Z,2.38
2023-04-02T04:05:37.953Z,2.38
2023-04-02T04:08:14.397Z,2.42
2023-04-02T04:10:42.280Z,2.38
2023-04-02T04:13:16.063Z,2.37
2023-04-02T04:15:49.286Z,2.39
2023-04-02T04:18:41.319Z,2.40
2023-04-02T04:21:31.343Z,2.40
2023-04-02T04:24:03.849Z,2.38
2023-04-02T04:26:53.598Z,2.35
2023-04-02T04:29:38.284Z,2.26
2023-04-02T04:32:16.845Z,2.26
2023-04-02T04:34:53.786Z,2.36
2023-04-02T04:37:25.360Z,2.39
2023-04-02T04:39:58.261Z,2.41
2023-04-02T04:42:31.180Z,2.40
2023-04-02T04:45:41.208Z,2.44
2023-04-02T04:48:19.047Z,2.51
2023-04-02T04:51:20.427Z,2.47
2023-04-02T04:53:49.558Z,2.45
2023-04-02T04:56:23.566Z,2.37
2023-04-02T04:58:59.388Z,2.44
2023-04-02T05:01:37.972Z,2.36
2023-04-02T05:04:11.156Z,2.37
2023-04-02T05:06:41.289Z,2.34
2023-04-02T05:09:36.418Z,2.38
2023-04-02T05:12:08.477Z,2.37
2023-04-02T05:14:45.263Z,2.40
2023-04-02T05:17:21.068Z,2.46
2023-04-02T05:19:56.811Z,2.47
2023-04-02T05:22:40.938Z,2.56
2023-04-02T05:25:11.275Z,2.61
2023-04-02T05:27:56.272Z,2.51
2023-04-02T05:30:22.875Z,2.46
2023-04-02T05:33:00.626Z,2.48
2023-04-02T05:35:41.908Z,2.51
2023-04-02T05:38:08.710Z,2.53
2023-04-02T05:40:41.787Z,2.57
2023-04-02T05:43:16.675Z,2.63
2023-04-02T05:45:46.058Z,2.61
2023-04-02T05:48:21.485Z,2.69
2023-04-02T05:50:51.965Z,2.70
2023-04-02T05:53:27.798Z,2.65
2023-04-02T05:56:11.319Z,2.67
2023-04-02T05:58:51.556Z,2.69
2023-04-02T06:01:29.636Z,2.71
2023-04-02T06:04:02.751Z,2.71
2023-04-02T06:06:39.130Z,2.67
2023-04-02T06:09:11.753Z,2.72
2023-04-02T06:11:42.968Z,2.80
2023-04-02T06:14:12.381Z,2.87
2023-04-02T06:16:39.319Z,2.80
2023-04-02T06:19:10.410Z,2.87
2023-04-02T06:21:44.315Z,2.94
2023-04-02T06:24:13.805Z,2.97
2023-04-02T06:26:44.584Z,2.96
2023-04-02T06:29:13.950Z,2.92
2023-04-02T06:32:11.553Z,2.93
2023-04-02T06:34:40.103Z,3.05
2023-04-02T06:37:33.969Z,2.99
2023-04-02T06:40:01.410Z,3.16
2023-04-02T06:42:34.716Z,3.03
2023-04-02T06:45:04.134Z,3.11
2023-04-02T06:47:44.597Z,3.20
2023-04-02T06:50:19.238Z,3.21
2023-04-02T06:52:49.142Z,3.04
2023-04-02T06:55:37.647Z,3.14
2023-04-02T06:58:04.555Z,3.17
2023-04-02T07:00:42.738Z,3.14
2023-04-02T07:03:31.285Z,3.27
2023-04-02T07:05:59.191Z,3.38
2023-04-02T07:08:26.104Z,3.41
2023-04-02T07:10:53.021Z,3.47
2023-04-02T07:13:22.224Z,3.80
2023-04-02T07:15:51.535Z,4.24
2023-04-02T07:18:26.684Z,4.45
2023-04-02T07:20:53.458Z,4.58
2023-04-02T07:23:21.251Z,4.60
2023-04-02T07:25:53.362Z,4.65
2023-04-02T07:28:22.524Z,4.72
2023-04-02T07:30:50.111Z,4.41
2023-04-02T07:33:22.748Z,4.29
2023-04-02T07:35:50.850Z,4.29
2023-04-02T07:38:17.635Z,4.34
2023-04-02T07:40:44.532Z,4.13
2023-04-02T07:43:11.611Z,4.17
2023-04-02T07:45:38.446Z,4.31
2023-04-02T07:48:10.898Z,4.47
2023-04-02T07:50:38.117Z,4.26
2023-04-02T07:53:05.002Z,4.40
2023-04-02T07:55:32.039Z,4.40
2023-04-02T07:57:59.641Z,4.60
2023-04-02T08:00:29.061Z,4.58
2023-04-02T08:02:56.257Z,4.50
2023-04-02T08:05:23.145Z,4.25
2023-04-02T08:07:55.165Z,4.27
2023-04-02T08:10:22.305Z,4.45
2023-04-02T08:12:49.800Z,4.50
2023-04-02T08:15:16.955Z,4.46
2023-04-02T08:17:43.821Z,4.66
2023-04-02T08:20:16.966Z,4.52
2023-04-02T08:22:45.335Z,4.82
2023-04-02T08:25:12.314Z,5.03
2023-04-02T08:27:39.370Z,5.22
2023-04-02T08:30:07.787Z,5.04
2023-04-02T08:32:34.863Z,5.04
2023-04-02T08:35:01.573Z,4.94
2023-04-02T08:37:28.202Z,4.49
2023-04-02T08:39:54.864Z,4.44
2023-04-02T08:42:43.191Z,4.60
2023-04-02T08:45:25.488Z,4.61
2023-04-02T08:47:55.379Z,4.97
2023-04-02T08:50:32.198Z,5.13
2023-04-02T08:52:59.841Z,5.44
2023-04-02T08:55:49.722Z,5.51
2023-04-02T08:58:50.041Z,5.57
2023-04-02T09:01:34.967Z,5.35
2023-04-02T09:04:06.290Z,5.56
2023-04-02T09:06:33.548Z,5.38
2023-04-02T09:09:00.328Z,5.85
2023-04-02T09:11:41.878Z,5.83
2023-04-02T09:14:17.646Z,6.05
2023-04-02T09:16:47.953Z,5.96
2023-04-02T09:19:35.067Z,6.36
2023-04-02T09:22:08.974Z,6.20
2023-04-02T09:24:37.660Z,5.90
2023-04-02T09:27:04.671Z,6.45
2023-04-02T09:29:45.453Z,6.88
2023-04-02T09:32:30.919Z,6.76
2023-04-02T09:35:24.824Z,7.19
2023-04-02T09:38:14.172Z,6.40
2023-04-02T09:41:07.018Z,6.43
2023-04-02T09:43:35.968Z,6.70
2023-04-02T09:46:13.977Z,7.12
2023-04-02T09:48:44.044Z,7.25
2023-04-02T09:51:17.805Z,7.50
2023-04-02T09:53:47.861Z,7.63
2023-04-02T09:56:25.633Z,7.07
2023-04-02T10:01:44.695Z,7.37
2023-04-02T10:04:47.995Z,8.17
2023-04-02T10:07:38.677Z,8.29
2023-04-02T10:10:30.677Z,8.13
2023-04-02T10:13:06.315Z,7.43
2023-04-02T10:16:04.321Z,6.98
2023-04-02T10:18:43.508Z,7.31
2023-04-02T10:21:14.109Z,7.86
2023-04-02T10:23:41.060Z,7.61
2023-04-02T10:26:24.790Z,7.66
2023-04-02T10:29:00.464Z,7.59
2023-04-02T10:31:45.849Z,7.27
2023-04-02T10:34:27.906Z,7.32
2023-04-02T10:36:57.827Z,7.12
2023-04-02T10:39:44.916Z,7.27
2023-04-02T10:42:21.451Z,7.38
2023-04-02T10:45:02.078Z,7.69
2023-04-02T10:47:33.588Z,8.24
2023-04-02T10:50:08.884Z,8.57
2023-04-02T10:52:38.759Z,7.86
2023-04-02T10:55:26.190Z,7.94
2023-04-02T10:57:54.463Z,7.58
2023-04-02T11:00:26.053Z,7.29
2023-04-02T11:03:00.519Z,7.30
2023-04-02T11:05:53.769Z,7.51
2023-04-02T11:08:26.926Z,7.02
2023-04-02T11:10:58.704Z,7.59
2023-04-02T11:13:37.496Z,7.87
2023-04-02T11:16:04.268Z,7.61
2023-04-02T11:18:35.905Z,7.26
2023-04-02T11:21:44.905Z,6.67
2023-04-02T11:24:31.550Z,7.72
2023-04-02T11:27:07.255Z,8.51
2023-04-02T11:29:36.709Z,8.56
2023-04-02T11:32:21.717Z,8.12
2023-04-02T11:34:56.387Z,8.18
2023-04-02T11:37:35.062Z,8.65
2023-04-02T11:40:14.807Z,8.54
2023-04-02T11:42:52.748Z,8.38
2023-04-02T11:45:28.625Z,8.45
2023-04-02T11:48:01.491Z,8.18
2023-04-02T11:50:29.990Z,7.88
2023-04-02T11:53:02.718Z,8.10
2023-04-02T11:55:34.294Z,8.22
2023-04-02T11:58:39.028Z,8.54
2023-04-02T12:01:05.594Z,8.83
2023-04-02T12:03:54.251Z,7.62
2023-04-02T12:06:48.856Z,7.78
2023-04-02T12:09:27.957Z,6.95
2023-04-02T12:11:59.890Z,7.28
2023-04-02T12:14:47.493Z,7.74
2023-04-02T12:17:19.425Z,7.80
2023-04-02T12:19:48.724Z,7.60
2023-04-02T12:22:20.941Z,7.08
2023-04-02T12:24:48.318Z,7.03
2023-04-02T12:27:24.454Z,7.31
2023-04-02T12:29:51.736Z,7.47
2023-04-02T12:32:31.138Z,7.59
2023-04-02T12:34:58.206Z,7.64
2023-04-02T12:37:27.197Z,7.59
2023-04-02T12:40:06.987Z,7.15
2023-04-02T12:42:37.719Z,6.87
2023-04-02T12:45:07.004Z,6.89
2023-04-02T12:47:33.856Z,7.40
2023-04-02T12:50:01.453Z,7.18
2023-04-02T12:52:29.187Z,7.12
2023-04-02T12:55:01.708Z,7.00
2023-04-02T12:57:31.656Z,7.16
2023-04-02T13:00:25.278Z,7.10
2023-04-02T13:03:08.787Z,6.76
2023-04-02T13:05:42.795Z,6.64
2023-04-02T13:08:30.830Z,6.74
2023-04-02T13:10:59.844Z,6.53
2023-04-02T13:13:30.214Z,6.52
2023-04-02T13:16:02.776Z,7.04
2023-04-02T13:18:31.180Z,7.33
2023-04-02T13:21:16.660Z,7.22
2023-04-02T13:23:44.264Z,7.08
2023-04-02T13:26:27.377Z,7.09
2023-04-02T13:29:09.417Z,7.36
2023-04-02T13:31:36.233Z,7.41
2023-04-02T13:34:03.258Z,6.68
2023-04-02T13:36:30.025Z,6.71
2023-04-02T13:38:57.142Z,6.69
2023-04-02T13:41:27.799Z,6.94
2023-04-02T13:43:55.147Z,6.75
2023-04-02T13:46:24.970Z,7.02
2023-04-02T13:48:53.320Z,6.75
2023-04-02T13:51:23.051Z,6.97
2023-04-02T13:53:55.630Z,6.71
2023-04-02T13:56:23.425Z,6.56
2023-04-02T13:58:51.442Z,6.48
2023-04-02T14:01:20.812Z,6.64
2023-04-02T14:03:47.675Z,6.39
2023-04-02T14:06:37.910Z,6.48
2023-04-02T14:09:35.780Z,6.70
2023-04-02T14:12:10.766Z,6.78
2023-04-02T14:15:09.924Z,6.92
2023-04-02T14:18:02.388Z,6.50
2023-04-02T14:20:36.663Z,6.17
2023-04-02T14:23:03.335Z,6.00
2023-04-02T14:25:54.977Z,6.09
2023-04-02T14:28:28.153Z,6.31
2023-04-02T14:31:13.307Z,6.51
2023-04-02T14:33:51.668Z,6.46
2023-04-02T14:36:27.003Z,6.48
2023-04-02T14:39:06.399Z,6.43
2023-04-02T14:41:45.613Z,6.16
2023-04-02T14:44:13.022Z,5.97
2023-04-02T14:46:39.956Z,5.95
2023-04-02T14:49:29.741Z,6.33
2023-04-02T14:51:56.599Z,6.82
2023-04-02T14:54:52.586Z,7.04
2023-04-02T14:57:33.360Z,6.45
2023-04-02T15:00:13.503Z,6.04
2023-04-02T15:03:04.162Z,6.48
2023-04-02T15:05:41.630Z,6.53
2023-04-02T15:08:30.556Z,6.53
2023-04-02T15:11:05.693Z,6.45
2023-04-02T15:13:45.583Z,6.03
2023-04-02T15:16:23.668Z,6.11
2023-04-02T15:18:51.681Z,6.08
2023-04-02T15:21:43.367Z,5.96
2023-04-02T15:24:18.791Z,6.11
2023-04-02T15:27:22.204Z,6.25
2023-04-02T15:29:52.146Z,6.37
2023-04-02T15:32:32.335Z,6.32
2023-04-02T15:35:27.038Z,6.39
2023-04-02T15:38:02.386Z,6.11
2023-04-02T15:40:45.098Z,6.17
2023-04-02T15:43:22.972Z,6.14
2023-04-02T15:46:11.731Z,6.19
2023-04-02T15:49:10.898Z,6.02
2023-04-02T15:51:56.535Z,6.13
2023-04-02T15:54:42.241Z,6.18
2023-04-02T15:57:34.325Z,5.83
2023-04-02T16:00:20.385Z,5.81
2023-04-02T16:03:12.275Z,5.64
2023-04-02T16:06:01.373Z,5.78
2023-04-02T16:08:59.304Z,5.26
2023-04-02T16:11:27.438Z,5.34
2023-04-02T16:14:05.138Z,5.46
2023-04-02T16:16:34.775Z,5.42
2023-04-02T16:19:17.350Z,5.05
2023-04-02T16:21:52.784Z,5.29
2023-04-02T16:24:19.815Z,5.18
2023-04-02T16:27:24.150Z,4.83
2023-04-02T16:30:22.524Z,4.92
2023-04-02T16:33:10.475Z,4.86
2023-04-02T16:35:56.922Z,4.84
2023-04-02T16:38:57.678Z,4.68
2023-04-02T16:41:42.935Z,4.61
2023-04-02T16:44:34.801Z,4.48
2023-04-02T16:47:04.374Z,4.46
2023-04-02T16:49:46.186Z,4.30
2023-04-02T16:52:28.004Z,4.35
2023-04-02T16:55:14.459Z,4.24
2023-04-02T16:57:56.895Z,4.01
2023-04-02T17:00:46.259Z,4.02
2023-04-02T17:03:34.869Z,4.05
2023-04-02T17:06:06.142Z,3.97
2023-04-02T17:08:42.520Z,3.93
2023-04-02T17:11:15.102Z,3.80
2023-04-02T17:13:43.704Z,3.79
2023-04-02T17:16:20.157Z,3.75
2023-04-02T17:18:48.896Z,3.78
2023-04-02T17:21:19.813Z,3.68
2023-04-02T17:23:55.831Z,3.57
2023-04-02T17:26:27.229Z,3.56
2023-04-02T17:28:57.464Z,3.47
2023-04-02T17:31:26.339Z,3.49
2023-04-02T17:33:53.069Z,3.39
2023-04-02T17:36:35.155Z,3.27
2023-04-02T17:39:10.024Z,3.25
2023-04-02T17:42:10.426Z,3.29
2023-04-02T17:44:41.817Z,3.19
2023-04-02T17:47:11.449Z,3.15
2023-04-02T17:50:18.427Z,2.94
2023-04-02T17:52:51.664Z,3.00
2023-04-02T17:55:52.929Z,2.94
2023-04-02T17:58:48.673Z,2.77
2023-04-02T18:01:24.883Z,2.65
2023-04-02T18:03:58.421Z,2.71
2023-04-02T18:06:32.275Z,2.63
2023-04-02T18:09:04.274Z,2.59
2023-04-02T18:11:40.651Z,2.55
2023-04-02T18:14:29.702Z,2.58
2023-04-02T18:17:19.651Z,2.50
2023-04-02T18:19:54.252Z,2.40
2023-04-02T18:22:47.640Z,2.49
2023-04-02T18:25:27.235Z,2.47
2023-04-02T18:28:11.669Z,2.43
2023-04-02T18:31:03.488Z,2.44
2023-04-02T18:33:33.079Z,2.32
2023-04-02T18:36:05.250Z,2.19
2023-04-02T18:38:49.708Z,2.28
2023-04-02T18:41:31.429Z,2.25
2023-04-02T18:44:07.750Z,2.21
2023-04-02T18:46:43.843Z,2.15
2023-04-02T18:49:37.028Z,2.11
2023-04-02T18:52:11.131Z,2.06
2023-04-02T18:54:50.983Z,2.00
2023-04-02T18:57:22.503Z,1.95
2023-04-02T19:00:38.658Z,1.99
2023-04-02T19:03:31.603Z,1.92
2023-04-02T19:06:04.831Z,1.91
2023-04-02T19:08:50.437Z,1.82
2023-04-02T19:11:31.910Z,1.75
2023-04-02T19:13:59.832Z,1.73
2023-04-02T19:16:45.141Z,1.73
2023-04-02T19:19:41.053Z,1.61
2023-04-02T19:22:18.444Z,1.66
2023-04-02T19:25:00.401Z,1.51
2023-04-02T19:27:27.494Z,1.55
2023-04-02T19:30:00.996Z,1.53
2023-04-02T19:32:54.435Z,1.45
2023-04-02T19:35:31.850Z,1.50
2023-04-02T19:38:21.742Z,1.39
2023-04-02T19:41:00.130Z,1.34
2023-04-02T19:43:27.983Z,1.39
2023-04-02T19:45:55.525Z,1.33
2023-04-02T19:48:26.641Z,1.41
2023-04-02T19:50:53.788Z,1.26
2023-04-02T19:53:20.592Z,1.29
2023-04-02T19:55:47.347Z,1.05
2023-04-02T19:58:31.284Z,1.07
2023-04-02T20:00:58.173Z,1.08
2023-04-02T20:03:24.870Z,1.07
2023-04-02T20:05:51.560Z,1.11
2023-04-02T20:08:18.410Z,0.96
2023-04-02T20:10:45.272Z,1.00
2023-04-02T20:13:11.971Z,1.00
2023-04-02T20:15:40.083Z,0.97
2023-04-02T20:18:06.949Z,0.96
2023-04-02T20:20:33.918Z,0.97
2023-04-02T20:23:00.859Z,0.97
2023-04-02T20:25:27.451Z,0.89
2023-04-02T20:27:54.108Z,0.92
2023-04-02T20:30:20.702Z,0.86
2023-04-02T20:32:47.551Z,0.86
2023-04-02T20:35:14.316Z,0.62
2023-04-02T20:37:42.000Z,0.65
2023-04-02T20:40:10.212Z,0.73
2023-04-02T20:42:37.414Z,0.68
2023-04-02T20:45:06.236Z,0.59
2023-04-02T20:47:34.740Z,0.56
2023-04-02T20:50:04.209Z,0.41
2023-04-02T20:52:33.489Z,0.55
2023-04-02T20:55:00.220Z,0.54
2023-04-02T20:57:34.226Z,0.51
2023-04-02T21:00:07.195Z,0.46
2023-04-02T21:02:37.876Z,0.47
2023-04-02T21:05:06.039Z,0.25
2023-04-02T21:07:36.877Z,0.38
2023-04-02T21:10:05.959Z,0.44
2023-04-02T21:12:32.827Z,0.16
2023-04-02T21:15:02.288Z,0.19
2023-04-02T21:17:29.700Z,0.29
2023-04-02T21:19:56.342Z,0.29
2023-04-02T21:22:23.071Z,0.30
2023-04-02T21:24:49.734Z,0.18
2023-04-02T21:27:17.371Z,0.31
2023-04-02T21:29:44.242Z,0.26
2023-04-02T21:32:20.783Z,0.09
2023-04-02T21:34:48.220Z,0.13
2023-04-02T21:37:14.950Z,0.12
2023-04-02T21:39:41.702Z,0.08
2023-04-02T21:42:10.659Z,0.13
2023-04-02T21:44:37.294Z,0.12
2023-04-02T21:47:04.145Z,-0.03
2023-04-02T21:49:31.001Z,-0.03
2023-04-02T21:51:57.647Z,0.18
2023-04-02T21:54:24.287Z,0.20
2023-04-02T21:56:51.460Z,0.20
2023-04-02T21:59:19.158Z,0.15
2023-04-02T22:01:49.228Z,0.19
2023-04-02T22:04:21.489Z,0.20
2023-04-02T22:06:48.756Z,0.08
2023-04-02T22:09:18.460Z,-0.02
2023-04-02T22:11:47.489Z,0.03
2023-04-02T22:14:14.679Z,0.09
2023-04-02T22:16:41.896Z,0.17
2023-04-02T22:19:11.716Z,-0.03
2023-04-02T22:21:38.844Z,-0.13
2023-04-02T22:24:08.997Z,-0.12
2023-04-02T22:26:36.695Z,0.01
2023-04-02T22:29:04.599Z,-0.14
2023-04-02T22:31:33.628Z,-0.21
2023-04-02T22:34:01.110Z,-0.32
2023-04-02T22:36:28.425Z,-0.22
2023-04-02T22:38:56.651Z,-0.32
2023-04-02T22:41:28.991Z,-0.35
2023-04-02T22:43:56.685Z,-0.35
2023-04-02T22:46:24.401Z,-0.23
2023-04-02T22:48:51.327Z,-0.31
2023-04-02T22:51:20.048Z,-0.50
2023-04-02T22:53:47.394Z,-0.38
2023-04-02T22:56:17.058Z,-0.40
2023-04-02T22:58:44.501Z,-0.42
2023-04-02T23:01:23.851Z,-0.53
2023-04-02T23:03:53.067Z,-0.46
2023-04-02T23:06:20.326Z,-0.48
2023-04-02T23:08:47.281Z,-0.70
2023-04-02T23:11:17.283Z,-0.65
2023-04-02T23:13:45.455Z,-0.82
2023-04-02T23:16:13.395Z,-0.73
2023-04-02T23:18:41.718Z,-0.73
2023-04-02T23:21:08.707Z,-0.85
2023-04-02T23:23:35.483Z,-1.01
2023-04-02T23:26:16.386Z,-0.93
2023-04-02T23:28:43.453Z,-1.00
2023-04-02T23:31:19.286Z,-1.02
2023-04-02T23:33:48.462Z,-1.12
2023-04-02T23:36:25.440Z,-1.23
2023-04-02T23:38:56.994Z,-1.22
2023-04-02T23:41:28.682Z,-1.33
2023-04-02T23:43:56.196Z,-1.41
2023-04-02T23:46:23.673Z,-1.47
2023-04-02T23:48:51.389Z,-1.56
2023-04-02T23:51:18.685Z,-1.60
2023-04-02T23:53:45.309Z,-1.65
2023-04-02T23:56:12.318Z,-1.56
2023-04-02T23:58:38.959Z,-1.59
